sensor_id;sensor_type;location;lat;lon;timestamp;P1;durP1;ratioP1;P2;durP2;ratioP2
6199;SDS011;3133;43.214;27.906;2022-12-07T00:00:52;5.33;;;3.83;;
6199;SDS011;3133;43.214;27.906;2022-12-07T00:03:19;7.20;;;4.07;;
6199;SDS011;3133;43.214;27.906;2022-12-07T00:05:46;4.17;;;3.63;;
6199;SDS011;3133;43.214;27.906;2022-12-07T00:08:15;16.77;;;3.83;;
6199;SDS011;3133;43.214;27.906;2022-12-07T00:10:41;7.73;;;4.13;;
6199;SDS011;3133;43.214;27.906;2022-12-07T00:13:11;5.43;;;3.50;;
6199;SDS011;3133;43.214;27.906;2022-12-07T00:15:38;3.73;;;3.20;;
6199;SDS011;3133;43.214;27.906;2022-12-07T00:18:05;4.00;;;2.80;;
6199;SDS011;3133;43.214;27.906;2022-12-07T00:20:32;4.00;;;2.83;;
6199;SDS011;3133;43.214;27.906;2022-12-07T00:22:59;10.03;;;3.20;;
6199;SDS011;3133;43.214;27.906;2022-12-07T00:25:27;3.90;;;2.50;;
6199;SDS011;3133;43.214;27.906;2022-12-07T00:27:54;4.63;;;2.73;;
6199;SDS011;3133;43.214;27.906;2022-12-07T00:30:21;4.47;;;3.33;;
6199;SDS011;3133;43.214;27.906;2022-12-07T00:32:49;3.00;;;2.60;;
6199;SDS011;3133;43.214;27.906;2022-12-07T00:35:16;3.37;;;2.70;;
6199;SDS011;3133;43.214;27.906;2022-12-07T00:37:43;4.37;;;3.60;;
6199;SDS011;3133;43.214;27.906;2022-12-07T00:40:11;4.77;;;3.80;;
6199;SDS011;3133;43.214;27.906;2022-12-07T00:42:40;8.20;;;3.40;;
6199;SDS011;3133;43.214;27.906;2022-12-07T00:45:07;5.47;;;3.20;;
6199;SDS011;3133;43.214;27.906;2022-12-07T00:47:35;4.00;;;3.10;;
6199;SDS011;3133;43.214;27.906;2022-12-07T00:50:02;10.10;;;3.20;;
6199;SDS011;3133;43.214;27.906;2022-12-07T00:52:29;6.33;;;3.00;;
6199;SDS011;3133;43.214;27.906;2022-12-07T00:54:56;7.50;;;3.27;;
6199;SDS011;3133;43.214;27.906;2022-12-07T00:57:23;3.27;;;2.60;;
6199;SDS011;3133;43.214;27.906;2022-12-07T00:59:51;5.20;;;3.00;;
6199;SDS011;3133;43.214;27.906;2022-12-07T01:02:20;6.00;;;2.70;;
6199;SDS011;3133;43.214;27.906;2022-12-07T01:04:47;4.03;;;3.10;;
6199;SDS011;3133;43.214;27.906;2022-12-07T01:07:14;3.97;;;3.37;;
6199;SDS011;3133;43.214;27.906;2022-12-07T01:09:41;3.87;;;3.23;;
6199;SDS011;3133;43.214;27.906;2022-12-07T01:12:09;4.57;;;3.10;;
6199;SDS011;3133;43.214;27.906;2022-12-07T01:14:36;2.70;;;2.50;;
6199;SDS011;3133;43.214;27.906;2022-12-07T01:17:04;3.70;;;2.77;;
6199;SDS011;3133;43.214;27.906;2022-12-07T01:19:31;2.70;;;2.50;;
6199;SDS011;3133;43.214;27.906;2022-12-07T01:21:58;3.73;;;2.60;;
6199;SDS011;3133;43.214;27.906;2022-12-07T01:24:24;3.23;;;2.83;;
6199;SDS011;3133;43.214;27.906;2022-12-07T01:26:51;2.60;;;2.40;;
6199;SDS011;3133;43.214;27.906;2022-12-07T01:29:18;2.93;;;2.67;;
6199;SDS011;3133;43.214;27.906;2022-12-07T01:31:47;3.77;;;2.60;;
6199;SDS011;3133;43.214;27.906;2022-12-07T01:34:16;3.50;;;2.67;;
6199;SDS011;3133;43.214;27.906;2022-12-07T01:36:43;3.80;;;2.60;;
6199;SDS011;3133;43.214;27.906;2022-12-07T01:39:10;5.87;;;2.50;;
6199;SDS011;3133;43.214;27.906;2022-12-07T01:41:38;4.83;;;2.63;;
6199;SDS011;3133;43.214;27.906;2022-12-07T01:44:13;3.00;;;2.70;;
6199;SDS011;3133;43.214;27.906;2022-12-07T01:46:45;3.00;;;2.70;;
6199;SDS011;3133;43.214;27.906;2022-12-07T01:49:15;3.33;;;2.50;;
6199;SDS011;3133;43.214;27.906;2022-12-07T01:51:48;4.83;;;2.70;;
6199;SDS011;3133;43.214;27.906;2022-12-07T01:54:17;4.20;;;3.00;;
6199;SDS011;3133;43.214;27.906;2022-12-07T01:56:47;3.47;;;3.00;;
6199;SDS011;3133;43.214;27.906;2022-12-07T01:59:17;3.73;;;2.73;;
6199;SDS011;3133;43.214;27.906;2022-12-07T02:01:46;7.60;;;3.00;;
6199;SDS011;3133;43.214;27.906;2022-12-07T02:04:13;3.87;;;3.10;;
6199;SDS011;3133;43.214;27.906;2022-12-07T02:06:42;4.23;;;2.87;;
6199;SDS011;3133;43.214;27.906;2022-12-07T02:09:11;5.53;;;3.10;;
6199;SDS011;3133;43.214;27.906;2022-12-07T02:11:38;4.23;;;3.10;;
6199;SDS011;3133;43.214;27.906;2022-12-07T02:14:06;4.67;;;2.60;;
6199;SDS011;3133;43.214;27.906;2022-12-07T02:16:34;4.23;;;3.30;;
6199;SDS011;3133;43.214;27.906;2022-12-07T02:19:15;4.47;;;3.00;;
6199;SDS011;3133;43.214;27.906;2022-12-07T02:22:00;3.60;;;3.27;;
6199;SDS011;3133;43.214;27.906;2022-12-07T02:24:46;3.17;;;2.73;;
6199;SDS011;3133;43.214;27.906;2022-12-07T02:27:30;5.27;;;3.50;;
6199;SDS011;3133;43.214;27.906;2022-12-07T02:30:09;4.03;;;3.40;;
6199;SDS011;3133;43.214;27.906;2022-12-07T02:32:42;4.17;;;3.70;;
6199;SDS011;3133;43.214;27.906;2022-12-07T02:35:17;4.60;;;4.17;;
6199;SDS011;3133;43.214;27.906;2022-12-07T02:37:51;4.30;;;3.90;;
6199;SDS011;3133;43.214;27.906;2022-12-07T02:40:27;5.53;;;4.10;;
6199;SDS011;3133;43.214;27.906;2022-12-07T02:43:00;5.37;;;3.83;;
6199;SDS011;3133;43.214;27.906;2022-12-07T02:45:32;6.70;;;4.17;;
6199;SDS011;3133;43.214;27.906;2022-12-07T02:48:03;5.83;;;4.33;;
6199;SDS011;3133;43.214;27.906;2022-12-07T02:50:34;5.50;;;4.30;;
6199;SDS011;3133;43.214;27.906;2022-12-07T02:53:02;5.80;;;4.33;;
6199;SDS011;3133;43.214;27.906;2022-12-07T02:55:32;4.73;;;4.23;;
6199;SDS011;3133;43.214;27.906;2022-12-07T02:58:06;5.37;;;4.50;;
6199;SDS011;3133;43.214;27.906;2022-12-07T03:00:49;5.00;;;4.50;;
6199;SDS011;3133;43.214;27.906;2022-12-07T03:03:21;5.43;;;4.77;;
6199;SDS011;3133;43.214;27.906;2022-12-07T03:05:53;7.87;;;4.97;;
6199;SDS011;3133;43.214;27.906;2022-12-07T03:08:31;13.47;;;5.10;;
6199;SDS011;3133;43.214;27.906;2022-12-07T03:11:09;6.53;;;4.90;;
6199;SDS011;3133;43.214;27.906;2022-12-07T03:13:41;7.20;;;4.80;;
6199;SDS011;3133;43.214;27.906;2022-12-07T03:16:17;5.10;;;4.60;;
6199;SDS011;3133;43.214;27.906;2022-12-07T03:18:48;7.73;;;5.20;;
6199;SDS011;3133;43.214;27.906;2022-12-07T03:21:19;7.10;;;5.33;;
6199;SDS011;3133;43.214;27.906;2022-12-07T03:23:51;6.87;;;5.10;;
6199;SDS011;3133;43.214;27.906;2022-12-07T03:26:23;5.70;;;4.50;;
6199;SDS011;3133;43.214;27.906;2022-12-07T03:28:58;7.80;;;4.97;;
6199;SDS011;3133;43.214;27.906;2022-12-07T03:31:30;7.03;;;5.47;;
6199;SDS011;3133;43.214;27.906;2022-12-07T03:34:01;6.23;;;5.47;;
6199;SDS011;3133;43.214;27.906;2022-12-07T03:36:35;6.33;;;4.93;;
6199;SDS011;3133;43.214;27.906;2022-12-07T03:39:09;5.97;;;5.03;;
6199;SDS011;3133;43.214;27.906;2022-12-07T03:41:43;11.30;;;5.17;;
6199;SDS011;3133;43.214;27.906;2022-12-07T03:44:12;7.07;;;5.33;;
6199;SDS011;3133;43.214;27.906;2022-12-07T03:46:44;11.60;;;6.20;;
6199;SDS011;3133;43.214;27.906;2022-12-07T03:49:17;6.97;;;5.30;;
6199;SDS011;3133;43.214;27.906;2022-12-07T03:51:51;6.67;;;5.60;;
6199;SDS011;3133;43.214;27.906;2022-12-07T03:54:26;6.83;;;5.50;;
6199;SDS011;3133;43.214;27.906;2022-12-07T03:57:00;6.07;;;5.40;;
6199;SDS011;3133;43.214;27.906;2022-12-07T03:59:29;6.47;;;5.77;;
6199;SDS011;3133;43.214;27.906;2022-12-07T04:02:01;9.80;;;6.30;;
6199;SDS011;3133;43.214;27.906;2022-12-07T04:04:33;7.03;;;6.03;;
6199;SDS011;3133;43.214;27.906;2022-12-07T04:07:01;8.87;;;6.43;;
6199;SDS011;3133;43.214;27.906;2022-12-07T04:09:28;10.23;;;7.10;;
6199;SDS011;3133;43.214;27.906;2022-12-07T04:11:55;9.13;;;6.80;;
6199;SDS011;3133;43.214;27.906;2022-12-07T04:14:22;9.40;;;7.17;;
6199;SDS011;3133;43.214;27.906;2022-12-07T04:16:49;17.50;;;7.47;;
6199;SDS011;3133;43.214;27.906;2022-12-07T04:19:20;8.90;;;6.17;;
6199;SDS011;3133;43.214;27.906;2022-12-07T04:21:49;7.60;;;6.37;;
6199;SDS011;3133;43.214;27.906;2022-12-07T04:24:15;11.27;;;6.43;;
6199;SDS011;3133;43.214;27.906;2022-12-07T04:26:43;13.73;;;7.97;;
6199;SDS011;3133;43.214;27.906;2022-12-07T04:29:10;7.93;;;6.83;;
6199;SDS011;3133;43.214;27.906;2022-12-07T04:31:37;9.33;;;6.13;;
6199;SDS011;3133;43.214;27.906;2022-12-07T04:34:04;11.70;;;6.57;;
6199;SDS011;3133;43.214;27.906;2022-12-07T04:36:33;10.13;;;7.27;;
6199;SDS011;3133;43.214;27.906;2022-12-07T04:39:00;7.10;;;6.27;;
6199;SDS011;3133;43.214;27.906;2022-12-07T04:41:28;7.13;;;6.10;;
6199;SDS011;3133;43.214;27.906;2022-12-07T04:43:55;11.87;;;7.00;;
6199;SDS011;3133;43.214;27.906;2022-12-07T04:46:23;9.50;;;6.23;;
6199;SDS011;3133;43.214;27.906;2022-12-07T04:48:50;9.33;;;6.80;;
6199;SDS011;3133;43.214;27.906;2022-12-07T04:51:18;10.87;;;6.93;;
6199;SDS011;3133;43.214;27.906;2022-12-07T04:53:48;9.93;;;6.67;;
6199;SDS011;3133;43.214;27.906;2022-12-07T04:56:15;13.50;;;8.33;;
6199;SDS011;3133;43.214;27.906;2022-12-07T04:58:43;10.27;;;7.70;;
6199;SDS011;3133;43.214;27.906;2022-12-07T05:01:12;11.90;;;8.77;;
6199;SDS011;3133;43.214;27.906;2022-12-07T05:03:39;10.33;;;7.30;;
6199;SDS011;3133;43.214;27.906;2022-12-07T05:06:06;10.67;;;7.80;;
6199;SDS011;3133;43.214;27.906;2022-12-07T05:08:34;11.43;;;7.60;;
6199;SDS011;3133;43.214;27.906;2022-12-07T05:11:04;10.20;;;8.23;;
6199;SDS011;3133;43.214;27.906;2022-12-07T05:13:32;11.17;;;8.00;;
6199;SDS011;3133;43.214;27.906;2022-12-07T05:16:01;13.83;;;8.70;;
6199;SDS011;3133;43.214;27.906;2022-12-07T05:18:32;13.80;;;9.53;;
6199;SDS011;3133;43.214;27.906;2022-12-07T05:20:58;21.17;;;9.50;;
6199;SDS011;3133;43.214;27.906;2022-12-07T05:23:25;15.40;;;10.07;;
6199;SDS011;3133;43.214;27.906;2022-12-07T05:25:52;18.60;;;10.67;;
6199;SDS011;3133;43.214;27.906;2022-12-07T05:28:20;21.00;;;11.27;;
6199;SDS011;3133;43.214;27.906;2022-12-07T05:30:47;15.07;;;10.30;;
6199;SDS011;3133;43.214;27.906;2022-12-07T05:33:14;16.33;;;11.13;;
6199;SDS011;3133;43.214;27.906;2022-12-07T05:35:42;14.67;;;10.63;;
6199;SDS011;3133;43.214;27.906;2022-12-07T05:38:09;15.33;;;11.10;;
6199;SDS011;3133;43.214;27.906;2022-12-07T05:40:36;17.57;;;12.20;;
6199;SDS011;3133;43.214;27.906;2022-12-07T05:43:03;21.63;;;12.30;;
6199;SDS011;3133;43.214;27.906;2022-12-07T05:45:31;19.20;;;12.23;;
6199;SDS011;3133;43.214;27.906;2022-12-07T05:47:58;21.30;;;12.53;;
6199;SDS011;3133;43.214;27.906;2022-12-07T05:50:25;21.77;;;12.63;;
6199;SDS011;3133;43.214;27.906;2022-12-07T05:52:52;20.50;;;12.73;;
6199;SDS011;3133;43.214;27.906;2022-12-07T05:55:19;24.03;;;13.33;;
6199;SDS011;3133;43.214;27.906;2022-12-07T05:57:46;19.20;;;12.03;;
6199;SDS011;3133;43.214;27.906;2022-12-07T06:00:27;18.40;;;12.17;;
6199;SDS011;3133;43.214;27.906;2022-12-07T06:02:55;17.27;;;12.37;;
6199;SDS011;3133;43.214;27.906;2022-12-07T06:05:22;19.27;;;12.37;;
6199;SDS011;3133;43.214;27.906;2022-12-07T06:07:49;19.80;;;13.07;;
6199;SDS011;3133;43.214;27.906;2022-12-07T06:10:16;19.23;;;12.03;;
6199;SDS011;3133;43.214;27.906;2022-12-07T06:12:43;29.57;;;13.90;;
6199;SDS011;3133;43.214;27.906;2022-12-07T06:15:11;20.83;;;14.03;;
6199;SDS011;3133;43.214;27.906;2022-12-07T06:17:38;26.13;;;15.13;;
6199;SDS011;3133;43.214;27.906;2022-12-07T06:20:07;21.50;;;13.43;;
6199;SDS011;3133;43.214;27.906;2022-12-07T06:22:35;24.07;;;14.83;;
6199;SDS011;3133;43.214;27.906;2022-12-07T06:25:02;26.77;;;17.83;;
6199;SDS011;3133;43.214;27.906;2022-12-07T06:27:29;24.90;;;15.63;;
6199;SDS011;3133;43.214;27.906;2022-12-07T06:29:57;22.13;;;14.20;;
6199;SDS011;3133;43.214;27.906;2022-12-07T06:32:24;28.73;;;14.77;;
6199;SDS011;3133;43.214;27.906;2022-12-07T06:34:51;25.20;;;16.23;;
6199;SDS011;3133;43.214;27.906;2022-12-07T06:37:20;22.87;;;15.23;;
6199;SDS011;3133;43.214;27.906;2022-12-07T06:39:47;22.17;;;13.27;;
6199;SDS011;3133;43.214;27.906;2022-12-07T06:42:13;23.10;;;13.23;;
6199;SDS011;3133;43.214;27.906;2022-12-07T06:44:40;20.67;;;13.60;;
6199;SDS011;3133;43.214;27.906;2022-12-07T06:47:07;21.10;;;14.70;;
6199;SDS011;3133;43.214;27.906;2022-12-07T06:49:34;20.13;;;15.00;;
6199;SDS011;3133;43.214;27.906;2022-12-07T06:52:01;26.47;;;14.87;;
6199;SDS011;3133;43.214;27.906;2022-12-07T06:54:31;22.73;;;15.07;;
6199;SDS011;3133;43.214;27.906;2022-12-07T06:56:58;26.07;;;15.03;;
6199;SDS011;3133;43.214;27.906;2022-12-07T06:59:25;31.23;;;18.13;;
6199;SDS011;3133;43.214;27.906;2022-12-07T07:01:51;20.90;;;14.83;;
6199;SDS011;3133;43.214;27.906;2022-12-07T07:04:18;25.17;;;14.40;;
6199;SDS011;3133;43.214;27.906;2022-12-07T07:06:45;26.47;;;14.30;;
6199;SDS011;3133;43.214;27.906;2022-12-07T07:09:12;20.00;;;14.60;;
6199;SDS011;3133;43.214;27.906;2022-12-07T07:11:40;29.10;;;15.10;;
6199;SDS011;3133;43.214;27.906;2022-12-07T07:14:07;19.03;;;12.90;;
6199;SDS011;3133;43.214;27.906;2022-12-07T07:16:34;20.27;;;13.30;;
6199;SDS011;3133;43.214;27.906;2022-12-07T07:19:02;25.47;;;14.53;;
6199;SDS011;3133;43.214;27.906;2022-12-07T07:21:29;21.03;;;13.60;;
6199;SDS011;3133;43.214;27.906;2022-12-07T07:23:57;20.40;;;13.40;;
6199;SDS011;3133;43.214;27.906;2022-12-07T07:26:27;21.50;;;13.00;;
6199;SDS011;3133;43.214;27.906;2022-12-07T07:28:56;17.07;;;12.90;;
6199;SDS011;3133;43.214;27.906;2022-12-07T07:31:23;25.50;;;14.67;;
6199;SDS011;3133;43.214;27.906;2022-12-07T07:33:50;20.73;;;14.17;;
6199;SDS011;3133;43.214;27.906;2022-12-07T07:36:17;19.93;;;13.80;;
6199;SDS011;3133;43.214;27.906;2022-12-07T07:38:45;20.63;;;13.97;;
6199;SDS011;3133;43.214;27.906;2022-12-07T07:41:12;24.37;;;13.87;;
6199;SDS011;3133;43.214;27.906;2022-12-07T07:43:40;21.77;;;13.57;;
6199;SDS011;3133;43.214;27.906;2022-12-07T07:46:09;24.93;;;15.27;;
6199;SDS011;3133;43.214;27.906;2022-12-07T07:48:37;26.23;;;15.53;;
6199;SDS011;3133;43.214;27.906;2022-12-07T07:51:05;27.23;;;16.77;;
6199;SDS011;3133;43.214;27.906;2022-12-07T07:53:35;21.27;;;14.27;;
6199;SDS011;3133;43.214;27.906;2022-12-07T07:56:02;18.20;;;12.53;;
6199;SDS011;3133;43.214;27.906;2022-12-07T07:58:29;25.27;;;13.40;;
6199;SDS011;3133;43.214;27.906;2022-12-07T08:00:56;21.53;;;13.97;;
6199;SDS011;3133;43.214;27.906;2022-12-07T08:03:24;23.87;;;13.43;;
6199;SDS011;3133;43.214;27.906;2022-12-07T08:05:51;21.67;;;13.47;;
6199;SDS011;3133;43.214;27.906;2022-12-07T08:08:18;21.27;;;13.20;;
6199;SDS011;3133;43.214;27.906;2022-12-07T08:10:45;20.70;;;14.30;;
6199;SDS011;3133;43.214;27.906;2022-12-07T08:13:13;20.33;;;12.83;;
6199;SDS011;3133;43.214;27.906;2022-12-07T08:15:42;18.90;;;12.43;;
6199;SDS011;3133;43.214;27.906;2022-12-07T08:18:10;23.13;;;12.77;;
6199;SDS011;3133;43.214;27.906;2022-12-07T08:20:40;17.63;;;12.40;;
6199;SDS011;3133;43.214;27.906;2022-12-07T08:23:10;19.33;;;12.67;;
6199;SDS011;3133;43.214;27.906;2022-12-07T08:25:37;17.77;;;12.87;;
6199;SDS011;3133;43.214;27.906;2022-12-07T08:28:04;17.40;;;12.07;;
6199;SDS011;3133;43.214;27.906;2022-12-07T08:30:32;22.43;;;13.80;;
6199;SDS011;3133;43.214;27.906;2022-12-07T08:32:59;17.70;;;12.43;;
6199;SDS011;3133;43.214;27.906;2022-12-07T08:35:26;22.53;;;12.20;;
6199;SDS011;3133;43.214;27.906;2022-12-07T08:37:56;15.50;;;10.53;;
6199;SDS011;3133;43.214;27.906;2022-12-07T08:40:23;17.27;;;12.17;;
6199;SDS011;3133;43.214;27.906;2022-12-07T08:42:50;18.27;;;12.33;;
6199;SDS011;3133;43.214;27.906;2022-12-07T08:45:18;18.53;;;11.87;;
6199;SDS011;3133;43.214;27.906;2022-12-07T08:47:48;22.50;;;13.13;;
6199;SDS011;3133;43.214;27.906;2022-12-07T08:50:18;18.50;;;12.67;;
6199;SDS011;3133;43.214;27.906;2022-12-07T08:52:47;14.97;;;11.60;;
6199;SDS011;3133;43.214;27.906;2022-12-07T08:55:18;22.57;;;12.27;;
6199;SDS011;3133;43.214;27.906;2022-12-07T08:57:45;19.80;;;12.57;;
6199;SDS011;3133;43.214;27.906;2022-12-07T09:00:13;19.07;;;11.47;;
6199;SDS011;3133;43.214;27.906;2022-12-07T09:02:42;16.17;;;12.07;;
6199;SDS011;3133;43.214;27.906;2022-12-07T09:05:09;13.43;;;9.47;;
6199;SDS011;3133;43.214;27.906;2022-12-07T09:07:40;15.20;;;10.00;;
6199;SDS011;3133;43.214;27.906;2022-12-07T09:10:11;11.50;;;9.20;;
6199;SDS011;3133;43.214;27.906;2022-12-07T09:12:45;12.43;;;9.20;;
6199;SDS011;3133;43.214;27.906;2022-12-07T09:15:21;14.37;;;8.87;;
6199;SDS011;3133;43.214;27.906;2022-12-07T09:17:48;11.30;;;8.47;;
6199;SDS011;3133;43.214;27.906;2022-12-07T09:20:15;12.97;;;8.27;;
6199;SDS011;3133;43.214;27.906;2022-12-07T09:22:44;13.47;;;8.70;;
6199;SDS011;3133;43.214;27.906;2022-12-07T09:25:11;15.77;;;9.23;;
6199;SDS011;3133;43.214;27.906;2022-12-07T09:27:38;19.83;;;10.83;;
6199;SDS011;3133;43.214;27.906;2022-12-07T09:30:18;13.93;;;9.93;;
6199;SDS011;3133;43.214;27.906;2022-12-07T09:32:45;15.73;;;11.10;;
6199;SDS011;3133;43.214;27.906;2022-12-07T09:35:12;17.27;;;10.83;;
6199;SDS011;3133;43.214;27.906;2022-12-07T09:37:40;21.10;;;10.50;;
6199;SDS011;3133;43.214;27.906;2022-12-07T09:40:07;18.23;;;10.10;;
6199;SDS011;3133;43.214;27.906;2022-12-07T09:42:35;15.70;;;10.13;;
6199;SDS011;3133;43.214;27.906;2022-12-07T09:45:06;13.27;;;10.10;;
6199;SDS011;3133;43.214;27.906;2022-12-07T09:47:40;16.20;;;9.73;;
6199;SDS011;3133;43.214;27.906;2022-12-07T09:50:10;15.00;;;10.70;;
6199;SDS011;3133;43.214;27.906;2022-12-07T09:53:10;17.13;;;10.57;;
6199;SDS011;3133;43.214;27.906;2022-12-07T09:55:41;15.50;;;11.17;;
6199;SDS011;3133;43.214;27.906;2022-12-07T09:58:12;18.40;;;10.60;;
6199;SDS011;3133;43.214;27.906;2022-12-07T10:00:46;17.70;;;11.63;;
6199;SDS011;3133;43.214;27.906;2022-12-07T10:03:14;18.40;;;11.03;;
6199;SDS011;3133;43.214;27.906;2022-12-07T10:05:42;21.67;;;13.63;;
6199;SDS011;3133;43.214;27.906;2022-12-07T10:08:12;16.30;;;11.03;;
6199;SDS011;3133;43.214;27.906;2022-12-07T10:10:41;18.70;;;11.10;;
6199;SDS011;3133;43.214;27.906;2022-12-07T10:13:09;17.30;;;10.77;;
6199;SDS011;3133;43.214;27.906;2022-12-07T10:15:42;21.23;;;12.13;;
6199;SDS011;3133;43.214;27.906;2022-12-07T10:18:18;14.80;;;11.63;;
6199;SDS011;3133;43.214;27.906;2022-12-07T10:20:48;15.40;;;11.07;;
6199;SDS011;3133;43.214;27.906;2022-12-07T10:23:15;16.27;;;11.93;;
6199;SDS011;3133;43.214;27.906;2022-12-07T10:25:43;14.73;;;11.03;;
6199;SDS011;3133;43.214;27.906;2022-12-07T10:28:13;15.70;;;11.87;;
6199;SDS011;3133;43.214;27.906;2022-12-07T10:30:49;21.67;;;12.77;;
6199;SDS011;3133;43.214;27.906;2022-12-07T10:33:31;15.97;;;10.77;;
6199;SDS011;3133;43.214;27.906;2022-12-07T10:36:00;14.57;;;10.87;;
6199;SDS011;3133;43.214;27.906;2022-12-07T10:38:44;17.00;;;11.07;;
6199;SDS011;3133;43.214;27.906;2022-12-07T10:41:12;16.73;;;9.70;;
6199;SDS011;3133;43.214;27.906;2022-12-07T10:43:46;17.20;;;10.87;;
6199;SDS011;3133;43.214;27.906;2022-12-07T10:46:24;18.93;;;10.90;;
6199;SDS011;3133;43.214;27.906;2022-12-07T10:49:16;14.30;;;11.27;;
6199;SDS011;3133;43.214;27.906;2022-12-07T10:52:01;16.27;;;11.13;;
6199;SDS011;3133;43.214;27.906;2022-12-07T10:54:37;16.80;;;11.80;;
6199;SDS011;3133;43.214;27.906;2022-12-07T10:57:17;19.20;;;12.07;;
6199;SDS011;3133;43.214;27.906;2022-12-07T10:59:55;21.60;;;11.73;;
6199;SDS011;3133;43.214;27.906;2022-12-07T11:02:35;21.53;;;11.90;;
6199;SDS011;3133;43.214;27.906;2022-12-07T11:05:25;17.03;;;11.57;;
6199;SDS011;3133;43.214;27.906;2022-12-07T11:07:59;18.67;;;11.63;;
6199;SDS011;3133;43.214;27.906;2022-12-07T11:10:38;18.17;;;12.73;;
6199;SDS011;3133;43.214;27.906;2022-12-07T11:13:16;13.73;;;12.17;;
6199;SDS011;3133;43.214;27.906;2022-12-07T11:15:55;23.87;;;11.83;;
6199;SDS011;3133;43.214;27.906;2022-12-07T11:18:40;14.70;;;10.73;;
6199;SDS011;3133;43.214;27.906;2022-12-07T11:21:18;23.17;;;11.73;;
6199;SDS011;3133;43.214;27.906;2022-12-07T11:23:52;15.27;;;11.70;;
6199;SDS011;3133;43.214;27.906;2022-12-07T11:26:32;14.77;;;10.50;;
6199;SDS011;3133;43.214;27.906;2022-12-07T11:29:18;20.47;;;11.47;;
6199;SDS011;3133;43.214;27.906;2022-12-07T11:32:12;13.27;;;10.50;;
6199;SDS011;3133;43.214;27.906;2022-12-07T11:34:46;18.63;;;9.63;;
6199;SDS011;3133;43.214;27.906;2022-12-07T11:37:26;17.27;;;9.83;;
6199;SDS011;3133;43.214;27.906;2022-12-07T11:40:00;15.43;;;11.00;;
6199;SDS011;3133;43.214;27.906;2022-12-07T11:42:31;14.07;;;9.73;;
6199;SDS011;3133;43.214;27.906;2022-12-07T11:45:10;14.60;;;10.70;;
6199;SDS011;3133;43.214;27.906;2022-12-07T11:47:43;18.00;;;9.73;;
6199;SDS011;3133;43.214;27.906;2022-12-07T11:50:21;13.27;;;9.97;;
6199;SDS011;3133;43.214;27.906;2022-12-07T11:52:57;11.80;;;9.13;;
6199;SDS011;3133;43.214;27.906;2022-12-07T11:55:29;13.27;;;9.37;;
6199;SDS011;3133;43.214;27.906;2022-12-07T11:58:14;13.13;;;10.43;;
6199;SDS011;3133;43.214;27.906;2022-12-07T12:00:49;14.87;;;9.30;;
6199;SDS011;3133;43.214;27.906;2022-12-07T12:03:23;14.33;;;10.43;;
6199;SDS011;3133;43.214;27.906;2022-12-07T12:06:02;17.37;;;10.97;;
6199;SDS011;3133;43.214;27.906;2022-12-07T12:08:36;21.93;;;14.10;;
6199;SDS011;3133;43.214;27.906;2022-12-07T12:11:21;19.33;;;12.43;;
6199;SDS011;3133;43.214;27.906;2022-12-07T12:14:19;16.80;;;10.87;;
6199;SDS011;3133;43.214;27.906;2022-12-07T12:17:06;15.57;;;11.07;;
6199;SDS011;3133;43.214;27.906;2022-12-07T12:19:58;22.67;;;11.20;;
6199;SDS011;3133;43.214;27.906;2022-12-07T12:22:34;18.43;;;11.10;;
6199;SDS011;3133;43.214;27.906;2022-12-07T12:25:21;14.90;;;11.13;;
6199;SDS011;3133;43.214;27.906;2022-12-07T12:27:53;19.03;;;11.40;;
6199;SDS011;3133;43.214;27.906;2022-12-07T12:30:34;16.43;;;10.70;;
6199;SDS011;3133;43.214;27.906;2022-12-07T12:33:12;20.63;;;12.13;;
6199;SDS011;3133;43.214;27.906;2022-12-07T12:35:48;19.03;;;12.37;;
6199;SDS011;3133;43.214;27.906;2022-12-07T12:38:51;18.57;;;11.67;;
6199;SDS011;3133;43.214;27.906;2022-12-07T12:41:53;18.03;;;11.63;;
6199;SDS011;3133;43.214;27.906;2022-12-07T12:50:27;17.90;;;10.37;;
6199;SDS011;3133;43.214;27.906;2022-12-07T12:53:15;13.93;;;9.63;;
6199;SDS011;3133;43.214;27.906;2022-12-07T12:59:16;16.13;;;11.03;;
6199;SDS011;3133;43.214;27.906;2022-12-07T13:01:49;14.33;;;10.23;;
6199;SDS011;3133;43.214;27.906;2022-12-07T13:04:24;16.67;;;11.23;;
6199;SDS011;3133;43.214;27.906;2022-12-07T13:07:01;13.63;;;10.47;;
6199;SDS011;3133;43.214;27.906;2022-12-07T13:09:29;16.13;;;11.80;;
6199;SDS011;3133;43.214;27.906;2022-12-07T13:12:04;16.87;;;12.33;;
6199;SDS011;3133;43.214;27.906;2022-12-07T13:20:49;16.93;;;11.57;;
6199;SDS011;3133;43.214;27.906;2022-12-07T13:23:54;14.73;;;10.53;;
6199;SDS011;3133;43.214;27.906;2022-12-07T13:26:24;17.27;;;11.70;;
6199;SDS011;3133;43.214;27.906;2022-12-07T13:29:06;11.80;;;9.80;;
6199;SDS011;3133;43.214;27.906;2022-12-07T13:31:40;18.33;;;11.20;;
6199;SDS011;3133;43.214;27.906;2022-12-07T13:34:28;18.60;;;11.00;;
6199;SDS011;3133;43.214;27.906;2022-12-07T13:36:57;18.33;;;10.53;;
6199;SDS011;3133;43.214;27.906;2022-12-07T13:39:28;16.57;;;11.03;;
6199;SDS011;3133;43.214;27.906;2022-12-07T13:41:56;20.37;;;11.37;;
6199;SDS011;3133;43.214;27.906;2022-12-07T13:44:27;17.30;;;10.67;;
6199;SDS011;3133;43.214;27.906;2022-12-07T13:47:02;15.80;;;10.43;;
6199;SDS011;3133;43.214;27.906;2022-12-07T13:49:37;14.77;;;10.23;;
6199;SDS011;3133;43.214;27.906;2022-12-07T13:52:13;28.87;;;11.47;;
6199;SDS011;3133;43.214;27.906;2022-12-07T13:55:23;17.03;;;10.13;;
6199;SDS011;3133;43.214;27.906;2022-12-07T13:57:51;17.40;;;10.93;;
6199;SDS011;3133;43.214;27.906;2022-12-07T14:00:30;17.77;;;10.77;;
6199;SDS011;3133;43.214;27.906;2022-12-07T14:03:01;13.33;;;10.47;;
6199;SDS011;3133;43.214;27.906;2022-12-07T14:05:32;17.83;;;10.70;;
6199;SDS011;3133;43.214;27.906;2022-12-07T14:08:01;19.67;;;11.13;;
6199;SDS011;3133;43.214;27.906;2022-12-07T14:10:54;14.73;;;11.20;;
6199;SDS011;3133;43.214;27.906;2022-12-07T14:13:26;21.77;;;12.03;;
6199;SDS011;3133;43.214;27.906;2022-12-07T14:15:59;20.10;;;10.90;;
6199;SDS011;3133;43.214;27.906;2022-12-07T14:18:29;18.50;;;12.10;;
6199;SDS011;3133;43.214;27.906;2022-12-07T14:21:03;20.13;;;11.47;;
6199;SDS011;3133;43.214;27.906;2022-12-07T14:23:30;21.80;;;12.90;;
6199;SDS011;3133;43.214;27.906;2022-12-07T14:26:05;18.00;;;11.47;;
6199;SDS011;3133;43.214;27.906;2022-12-07T14:28:34;24.93;;;11.87;;
6199;SDS011;3133;43.214;27.906;2022-12-07T14:31:08;18.27;;;11.67;;
6199;SDS011;3133;43.214;27.906;2022-12-07T14:33:51;24.00;;;12.53;;
6199;SDS011;3133;43.214;27.906;2022-12-07T14:36:18;21.67;;;12.90;;
6199;SDS011;3133;43.214;27.906;2022-12-07T14:38:46;15.67;;;11.00;;
6199;SDS011;3133;43.214;27.906;2022-12-07T14:41:19;22.43;;;12.00;;
6199;SDS011;3133;43.214;27.906;2022-12-07T14:44:08;19.97;;;12.43;;
6199;SDS011;3133;43.214;27.906;2022-12-07T14:46:37;20.30;;;11.97;;
6199;SDS011;3133;43.214;27.906;2022-12-07T14:49:07;20.33;;;12.27;;
6199;SDS011;3133;43.214;27.906;2022-12-07T14:51:35;19.33;;;12.10;;
6199;SDS011;3133;43.214;27.906;2022-12-07T14:54:05;25.73;;;11.57;;
6199;SDS011;3133;43.214;27.906;2022-12-07T14:56:33;18.70;;;11.57;;
6199;SDS011;3133;43.214;27.906;2022-12-07T14:59:00;19.53;;;11.47;;
6199;SDS011;3133;43.214;27.906;2022-12-07T15:01:27;26.00;;;14.80;;
6199;SDS011;3133;43.214;27.906;2022-12-07T15:03:54;18.07;;;12.17;;
6199;SDS011;3133;43.214;27.906;2022-12-07T15:06:34;21.33;;;13.20;;
6199;SDS011;3133;43.214;27.906;2022-12-07T15:09:01;17.90;;;12.40;;
6199;SDS011;3133;43.214;27.906;2022-12-07T15:11:53;16.77;;;12.10;;
6199;SDS011;3133;43.214;27.906;2022-12-07T15:21:27;19.97;;;13.97;;
6199;SDS011;3133;43.214;27.906;2022-12-07T15:53:30;23.47;;;15.23;;
6199;SDS011;3133;43.214;27.906;2022-12-07T15:55:58;23.27;;;15.43;;
6199;SDS011;3133;43.214;27.906;2022-12-07T15:58:25;24.10;;;14.50;;
6199;SDS011;3133;43.214;27.906;2022-12-07T16:00:53;32.03;;;15.73;;